Jonathan C Moran — WDI5374 — position and weather

sailwx.info

Track history (hours):
 
Tides and Currents Weather Stations Pressure Air Temp Water Temp Dewpoint Dewpoint Depression Visibility Wind Speed Wind Dir Waves Ship Positions

Jonathan C Moran

Owner: Moran Towing Corporation, New Canaan, CT. More information available from US FCC via Universal Licensing System and Coast Guard Vessel Documentation Center.

Last reported at 2017-Dec-15 12:00 UTC. Time now 2017-Dec-15 12:08 UTC.
Position N 40°38' W 074°08'.

Length 28 m; draft 5.5 m.

Type: Tug. MMSI: 367707930.

Date/timePositionNaut miles runAvg speedWind from/ knotsBaromVisibWave heightAir tempDewpointWater temp
2017-Dec-15 12:00N 40°38' W 074°08'0 0.0
2017-Dec-15 11:30N 40°38' W 074°08'2 4.6
2017-Dec-15 11:00N 40°39' W 074°05'0 0.5
2017-Dec-15 10:30N 40°39' W 074°05'0 0.1
2017-Dec-15 10:00N 40°39' W 074°05'0 0.1
2017-Dec-15 09:30N 40°39' W 074°05'2 3.9
2017-Dec-15 09:00N 40°38' W 074°08'0 0.0
2017-Dec-15 08:29N 40°38' W 074°08'0 0.0
2017-Dec-15 07:52N 40°38' W 074°08'0 0.0
2017-Dec-15 07:28N 40°38' W 074°08'0 0.0
2017-Dec-15 06:59N 40°38' W 074°08'0 0.0
2017-Dec-15 06:30N 40°38' W 074°08'0 0.0
2017-Dec-15 05:59N 40°38' W 074°08'0 0.0
2017-Dec-15 05:19N 40°38' W 074°08'2 7.2
2017-Dec-15 05:00N 40°41' W 074°09'0 0.4
2017-Dec-15 04:30N 40°41' W 074°09'0 0.8
2017-Dec-15 04:00N 40°41' W 074°09'3 1.9
2017-Dec-15 02:30N 40°38' W 074°08'0 0.0
2017-Dec-15 01:00N 40°38' W 074°08'0 0.0
2017-Dec-15 00:30N 40°38' W 074°08'0 0.0
2017-Dec-14 17:47N 40°38' W 074°08'0 0.0
2017-Dec-14 17:26N 40°38' W 074°08'0 0.0
2017-Dec-14 16:47N 40°38' W 074°08'0 0.0
2017-Dec-14 16:26N 40°38' W 074°08'0 0.0
2017-Dec-14 15:59N 40°38' W 074°08'0 0.0
2017-Dec-14 14:47N 40°38' W 074°08'0 0.0
2017-Dec-14 14:29N 40°38' W 074°08'0 0.0
2017-Dec-14 14:00N 40°38' W 074°08'0 0.0
2017-Dec-14 13:30N 40°38' W 074°08'0 0.0
2017-Dec-14 12:59N 40°38' W 074°08'0 0.0
2017-Dec-14 12:29N 40°38' W 074°08'3 5.4
2017-Dec-14 12:00N 40°39' W 074°11'1 1.6
2017-Dec-14 11:30N 40°39' W 074°10'3 6.7
2017-Dec-14 11:00N 40°39' W 074°06'2 4.3
2017-Dec-14 10:31N 40°38' W 074°03'4 7.0
2017-Dec-14 10:00N 40°39' W 074°08'0 0.1
2017-Dec-14 09:30N 40°38' W 074°08'0 0.0
2017-Dec-14 08:59N 40°38' W 074°08'0 0.0
2017-Dec-14 08:30N 40°38' W 074°08'0 0.0
2017-Dec-14 07:59N 40°38' W 074°08'0 0.0
2017-Dec-14 07:30N 40°38' W 074°08'0 0.0
2017-Dec-14 07:00N 40°38' W 074°08'0 0.0
2017-Dec-14 06:30N 40°38' W 074°08'0 0.0
2017-Dec-14 06:00N 40°38' W 074°08'0 0.0
2017-Dec-14 05:29N 40°38' W 074°08'0 0.0
2017-Dec-14 05:00N 40°38' W 074°08'0 0.0
2017-Dec-14 04:30N 40°38' W 074°08'0 0.0
2017-Dec-14 04:00N 40°38' W 074°08'0 0.0
2017-Dec-14 03:30N 40°38' W 074°08'0 0.0
2017-Dec-14 03:00N 40°38' W 074°08'0 0.0
2017-Dec-14 02:30N 40°38' W 074°08'0 0.0
2017-Dec-14 02:00N 40°38' W 074°08'0 0.0
2017-Dec-14 01:29N 40°38' W 074°08'0 0.0
2017-Dec-14 00:58N 40°38' W 074°08'0 0.0
2017-Dec-14 00:30N 40°38' W 074°08'0 0.0
2017-Dec-13 23:59N 40°38' W 074°08'0 0.0
2017-Dec-13 23:30N 40°38' W 074°08'0 0.0
2017-Dec-13 23:00N 40°38' W 074°08'0 0.0
2017-Dec-13 22:24N 40°38' W 074°08'0 0.0
2017-Dec-13 21:59N 40°38' W 074°08'0 0.0
2017-Dec-13 21:30N 40°38' W 074°08'0 0.0
2017-Dec-13 20:59N 40°38' W 074°08'0 0.0
2017-Dec-13 20:29N 40°38' W 074°08'0 0.0
2017-Dec-13 19:59N 40°38' W 074°08'0 0.0
2017-Dec-13 19:30N 40°38' W 074°08'0 0.0
2017-Dec-13 19:00N 40°38' W 074°08'0 0.0
2017-Dec-13 18:30N 40°38' W 074°08'0 0.0
2017-Dec-13 18:00N 40°38' W 074°08'0 0.0
2017-Dec-13 17:29N 40°38' W 074°08'2 5.2
2017-Dec-13 17:00N 40°41' W 074°09'0 0.1
2017-Dec-13 16:30N 40°41' W 074°09'1 2.8
2017-Dec-13 15:59N 40°39' W 074°09'2 3.2
2017-Dec-13 15:30N 40°39' W 074°07'2 5.0
2017-Dec-13 15:00N 40°39' W 074°04'3 5.1
2017-Dec-13 14:30N 40°36' W 074°03'4 4.5
2017-Dec-13 13:31N 40°38' W 074°08'0 0.0
2017-Dec-13 13:30N 40°38' W 074°08'1 2.9
2017-Dec-13 13:01N 40°40' W 074°08'1 1.6
2017-Dec-13 12:30N 40°41' W 074°09'0 0.4
2017-Dec-13 11:59N 40°41' W 074°09'2 3.7
2017-Dec-13 11:30N 40°39' W 074°09'1 1.9
2017-Dec-13 11:00N 40°40' W 074°09'0 0.2
2017-Dec-13 10:30N 40°40' W 074°09'0 0.2
2017-Dec-13 10:00N 40°40' W 074°09'1 2.9
2017-Dec-13 09:30N 40°38' W 074°08'0 0.0
2017-Dec-13 08:57N 40°38' W 074°08'0 0.0
2017-Dec-13 08:30N 40°38' W 074°08'0 0.0
2017-Dec-13 08:00N 40°38' W 074°08'0 0.0
2017-Dec-13 07:30N 40°38' W 074°08'0 0.0
2017-Dec-13 07:00N 40°38' W 074°08'0 0.0
2017-Dec-13 06:30N 40°38' W 074°08'0 0.0
2017-Dec-13 05:57N 40°38' W 074°08'0 0.0
2017-Dec-13 05:30N 40°38' W 074°08'0 0.0
2017-Dec-13 05:00N 40°38' W 074°08'0 0.0
2017-Dec-13 04:30N 40°38' W 074°08'3 5.0
2017-Dec-13 04:00N 40°41' W 074°09'0 0.5
2017-Dec-13 03:30N 40°41' W 074°09'0 0.3
2017-Dec-13 03:00N 40°41' W 074°09'2 3.4
2017-Dec-13 02:30N 40°39' W 074°09'2 4.0
2017-Dec-13 01:58N 40°39' W 074°06'3 6.3
2017-Dec-13 01:29N 40°37' W 074°03'2 3.8
2017-Dec-13 01:00N 40°35' W 074°02'3 5.8
2017-Dec-13 00:30N 40°38' W 074°04'3 1.3
2017-Dec-12 21:59N 40°38' W 074°08'0 0.0
2017-Dec-12 21:18N 40°38' W 074°08'0 0.0
2017-Dec-12 20:58N 40°38' W 074°08'1 3.0
2017-Dec-12 20:30N 40°40' W 074°09'0 0.3
2017-Dec-12 20:00N 40°40' W 074°09'1 2.9
2017-Dec-12 19:30N 40°39' W 074°07'3 6.2
2017-Dec-12 19:00N 40°38' W 074°03'3 5.2
2017-Dec-12 18:30N 40°39' W 074°07'1 1.8
2017-Dec-12 17:57N 40°38' W 074°08'0 0.0
2017-Dec-12 17:21N 40°38' W 074°08'0 0.0
2017-Dec-12 16:51N 40°38' W 074°08'0 0.0
2017-Dec-12 16:29N 40°38' W 074°08'0 0.0
2017-Dec-12 15:54N 40°38' W 074°08'0 0.0
2017-Dec-12 15:28N 40°38' W 074°08'0 0.0
2017-Dec-12 14:55N 40°38' W 074°08'0 0.0
2017-Dec-12 14:01N 40°38' W 074°08'0 0.0
2017-Dec-12 13:45N 40°38' W 074°08'0 0.0
2017-Dec-12 13:27N 40°38' W 074°08'2 4.6
2017-Dec-12 13:00N 40°39' W 074°05'1 2.3
2017-Dec-12 12:30N 40°40' W 074°04'1 1.2
2017-Dec-12 11:59N 40°40' W 074°05'3 6.6
2017-Dec-12 11:31N 40°41' W 074°01'0 0.6
2017-Dec-12 11:00N 40°41' W 074°01'2 4.6
2017-Dec-12 10:30N 40°39' W 074°03'2 5.0
2017-Dec-12 10:00N 40°39' W 074°06'2 3.9
2017-Dec-12 09:29N 40°39' W 074°09'1 1.2
2017-Dec-12 09:00N 40°40' W 074°09'0 0.4
2017-Dec-12 08:30N 40°40' W 074°09'0 0.0
2017-Dec-12 08:00N 40°40' W 074°09'1 1.4
2017-Dec-12 07:30N 40°39' W 074°09'1 1.9
2017-Dec-12 06:59N 40°38' W 074°08'0 0.0
2017-Dec-12 06:25N 40°38' W 074°08'0 0.0
2017-Dec-12 06:00N 40°38' W 074°08'0 0.0
2017-Dec-12 05:30N 40°38' W 074°08'0 0.0
2017-Dec-12 04:59N 40°38' W 074°08'0 0.0
2017-Dec-12 04:30N 40°38' W 074°08'0 0.0
2017-Dec-12 04:00N 40°38' W 074°08'0 0.0
2017-Dec-12 03:29N 40°38' W 074°08'0 0.0
2017-Dec-12 03:00N 40°38' W 074°08'0 0.0
2017-Dec-12 02:30N 40°38' W 074°08'0 0.0
2017-Dec-12 01:59N 40°38' W 074°08'0 0.0
2017-Dec-12 01:30N 40°38' W 074°08'0 0.0
2017-Dec-12 01:00N 40°38' W 074°08'0 0.0
2017-Dec-12 00:30N 40°38' W 074°08'0 0.0
2017-Dec-12 00:00N 40°38' W 074°08'0 0.0
2017-Dec-11 23:21N 40°38' W 074°08'1 1.9
2017-Dec-11 23:00N 40°39' W 074°09'3 5.0
2017-Dec-11 22:30N 40°41' W 074°09'0 0.5
2017-Dec-11 22:00N 40°41' W 074°09'2 3.7
2017-Dec-11 21:28N 40°39' W 074°09'3 4.5
2017-Dec-11 20:54N 40°39' W 074°06'2 5.1
2017-Dec-11 20:29N 40°38' W 074°03'2 3.4
2017-Dec-11 20:00N 40°39' W 074°05'2 4.7
2017-Dec-11 19:30N 40°38' W 074°08'0 0.0
2017-Dec-11 19:00N 40°38' W 074°08'0 0.0
2017-Dec-11 18:30N 40°38' W 074°08'0 0.0
2017-Dec-11 17:59N 40°38' W 074°08'0 0.0
2017-Dec-11 17:30N 40°38' W 074°08'0 0.0
2017-Dec-11 17:00N 40°38' W 074°08'0 0.0
2017-Dec-11 16:30N 40°38' W 074°08'1 2.9
2017-Dec-11 16:00N 40°40' W 074°09'0 0.3
2017-Dec-11 15:30N 40°40' W 074°09'1 2.6
2017-Dec-11 14:59N 40°39' W 074°08'3 6.9
2017-Dec-11 14:30N 40°39' W 074°04'0 0.9
2017-Dec-11 14:00N 40°39' W 074°04'3 5.4
2017-Dec-11 13:30N 40°38' W 074°08'0 0.0
2017-Dec-11 12:59N 40°38' W 074°08'0 0.0
2017-Dec-11 12:30N 40°38' W 074°08'0 0.0
2017-Dec-11 12:00N 40°38' W 074°08'0 0.0
2017-Dec-11 11:29N 40°38' W 074°08'0 0.2
2017-Dec-11 11:00N 40°39' W 074°08'2 3.6
2017-Dec-11 10:30N 40°40' W 074°08'1 1.7
2017-Dec-11 09:59N 40°41' W 074°09'0 0.1
2017-Dec-11 09:30N 40°41' W 074°09'0 0.0
2017-Dec-11 09:00N 40°41' W 074°09'0 0.0
2017-Dec-11 08:30N 40°41' W 074°09'0 0.0
2017-Dec-11 08:00N 40°41' W 074°09'2 4.9
2017-Dec-11 07:30N 40°39' W 074°08'0 0.2
2017-Dec-11 05:11N 40°38' W 074°08'0 0.0
2017-Dec-11 05:00N 40°38' W 074°08'0 0.0
2017-Dec-11 04:27N 40°38' W 074°08'0 0.0
2017-Dec-11 03:51N 40°38' W 074°08'0 0.0
2017-Dec-11 03:23N 40°38' W 074°08'0 0.0
2017-Dec-11 02:59N 40°38' W 074°08'0 0.0
2017-Dec-11 02:28N 40°38' W 074°08'0 0.0
2017-Dec-11 01:12N 40°38' W 074°08'0 0.0
2017-Dec-11 00:59N 40°38' W 074°08'0 0.0
2017-Dec-11 00:29N 40°38' W 074°08'0 0.0
2017-Dec-11 00:00N 40°38' W 074°08'0 0.0
2017-Dec-10 23:25N 40°38' W 074°08'1 3.0
2017-Dec-10 23:00N 40°40' W 074°09'1 2.6
2017-Dec-10 22:30N 40°41' W 074°09'1 2.8
2017-Dec-10 22:00N 40°40' W 074°09'1 2.5
2017-Dec-10 21:30N 40°38' W 074°08'0 0.0
2017-Dec-10 21:00N 40°38' W 074°08'0 0.0
2017-Dec-10 20:30N 40°38' W 074°08'0 0.0
2017-Dec-10 20:00N 40°38' W 074°08'0 0.9
2017-Dec-10 19:30N 40°39' W 074°07'1 2.6
2017-Dec-10 19:00N 40°39' W 074°09'1 2.8
2017-Dec-10 18:30N 40°41' W 074°08'0 0.5
2017-Dec-10 18:00N 40°41' W 074°09'2 3.1
2017-Dec-10 17:30N 40°39' W 074°09'1 1.8
2017-Dec-10 16:55N 40°38' W 074°08'0 0.0
2017-Dec-10 16:29N 40°38' W 074°08'0 0.0
2017-Dec-10 15:57N 40°38' W 074°08'0 0.0
2017-Dec-10 15:28N 40°38' W 074°08'0 0.0
2017-Dec-10 14:55N 40°38' W 074°08'0 0.0
2017-Dec-10 14:30N 40°38' W 074°08'0 0.0
2017-Dec-10 13:54N 40°38' W 074°08'0 0.0
2017-Dec-10 13:29N 40°38' W 074°08'0 0.0
2017-Dec-10 11:46N 40°38' W 074°08'0 0.0
2017-Dec-10 11:29N 40°38' W 074°08'0 0.0
2017-Dec-10 11:00N 40°38' W 074°08'0 0.0
2017-Dec-10 10:30N 40°38' W 074°08'0 0.0
2017-Dec-10 09:59N 40°38' W 074°08'0 0.0
2017-Dec-10 09:30N 40°38' W 074°08'1 1.5
2017-Dec-10 09:00N 40°38' W 074°09'2 4.6
2017-Dec-10 08:30N 40°41' W 074°09'0 0.5
2017-Dec-10 07:59N 40°41' W 074°09'3 5.2
2017-Dec-10 07:30N 40°39' W 074°08'2 3.5
2017-Dec-10 06:59N 40°40' W 074°08'1 2.2
2017-Dec-10 06:30N 40°41' W 074°09'0 0.1
2017-Dec-10 06:00N 40°41' W 074°09'0 0.0
2017-Dec-10 05:30N 40°41' W 074°09'0 0.0
2017-Dec-10 05:00N 40°41' W 074°09'0 0.0
2017-Dec-10 04:30N 40°41' W 074°09'0 0.5
2017-Dec-10 04:00N 40°41' W 074°09'1 1.8
2017-Dec-10 03:30N 40°40' W 074°08'2 3.6
2017-Dec-10 03:00N 40°39' W 074°07'3 6.1
2017-Dec-10 02:30N 40°38' W 074°04'0 0.3
2017-Dec-10 02:00N 40°38' W 074°04'3 2.3
2017-Dec-10 00:39N 40°38' W 074°08'0 0.0
2017-Dec-10 00:09N 40°38' W 074°08'0 0.0
2017-Dec-09 18:30N 40°38' W 074°08'0 0.0
2017-Dec-09 17:04N 40°38' W 074°08'0 0.0
2017-Dec-09 16:53N 40°38' W 074°08'0 0.0
2017-Dec-09 16:20N 40°38' W 074°08'0 0.0
2017-Dec-09 15:58N 40°38' W 074°08'0 0.0
2017-Dec-09 15:30N 40°38' W 074°08'0 0.0
2017-Dec-09 15:00N 40°38' W 074°08'0 0.0
2017-Dec-09 14:28N 40°38' W 074°08'0 0.0
2017-Dec-09 13:59N 40°38' W 074°08'0 0.0
2017-Dec-09 13:22N 40°38' W 074°08'0 0.0
2017-Dec-09 12:28N 40°38' W 074°08'0 0.0
2017-Dec-09 12:00N 40°38' W 074°08'0 0.0
2017-Dec-09 11:30N 40°38' W 074°08'0 0.0
2017-Dec-09 11:00N 40°38' W 074°08'0 0.0
2017-Dec-09 10:30N 40°38' W 074°08'0 0.0
2017-Dec-09 09:59N 40°38' W 074°08'0 0.0
2017-Dec-09 09:30N 40°38' W 074°08'0 0.0
2017-Dec-09 08:59N 40°38' W 074°08'0 0.0
2017-Dec-09 08:24N 40°38' W 074°08'0 0.0
2017-Dec-09 07:59N 40°38' W 074°08'0 0.0
2017-Dec-09 07:29N 40°38' W 074°08'0 0.4
2017-Dec-09 07:00N 40°39' W 074°08'1 2.4
2017-Dec-09 06:30N 40°40' W 074°09'0 0.4
2017-Dec-09 06:00N 40°40' W 074°09'0 0.1
2017-Dec-09 05:30N 40°40' W 074°09'1 2.9
2017-Dec-09 05:00N 40°38' W 074°08'0 0.0
2017-Dec-09 04:30N 40°38' W 074°08'0 0.0
2017-Dec-09 04:00N 40°39' W 074°08'0 0.0
2017-Dec-09 03:30N 40°39' W 074°08'0 0.0
2017-Dec-09 03:00N 40°39' W 074°08'0 0.0
2017-Dec-09 02:30N 40°39' W 074°08'0 0.0
2017-Dec-09 02:00N 40°39' W 074°08'3 6.1
2017-Dec-09 01:30N 40°39' W 074°04'2 3.3
2017-Dec-09 01:00N 40°40' W 074°05'1 1.4
2017-Dec-09 00:30N 40°40' W 074°04'4 7.2
2017-Dec-08 23:59N 40°38' W 074°09'3 5.6
2017-Dec-08 23:30N 40°41' W 074°08'1 1.7
2017-Dec-08 23:00N 40°42' W 074°09'3 6.3
2017-Dec-08 22:29N 40°39' W 074°09'1 1.6
2017-Dec-08 22:00N 40°38' W 074°08'0 0.0
2017-Dec-08 21:30N 40°38' W 074°08'0 0.0
2017-Dec-08 21:00N 40°38' W 074°08'0 0.0
2017-Dec-08 20:30N 40°38' W 074°08'0 0.0
2017-Dec-08 20:00N 40°38' W 074°08'0 0.0
2017-Dec-08 19:30N 40°38' W 074°08'0 0.0
2017-Dec-08 19:00N 40°38' W 074°08'0 0.0
2017-Dec-08 18:30N 40°38' W 074°08'0 0.0
2017-Dec-08 18:00N 40°38' W 074°08'0 0.0
2017-Dec-08 17:30N 40°38' W 074°08'0 0.0
2017-Dec-08 17:00N 40°38' W 074°08'0 0.0
2017-Dec-08 16:30N 40°38' W 074°08'0 0.0
2017-Dec-08 16:00N 40°38' W 074°08'0 0.0
2017-Dec-08 15:30N 40°38' W 074°08'0 0.0
2017-Dec-08 15:00N 40°38' W 074°08'0 0.0
2017-Dec-08 14:30N 40°38' W 074°08'0 0.0
2017-Dec-08 14:00N 40°38' W 074°08'0 0.0
2017-Dec-08 13:30N 40°38' W 074°08'0 0.0
2017-Dec-08 13:00N 40°38' W 074°08'1 2.2
2017-Dec-08 12:29N 40°39' W 074°09'2 3.1
2017-Dec-08 12:00N 40°41' W 074°09'0 0.7
2017-Dec-08 11:30N 40°41' W 074°09'1 1.6
2017-Dec-08 11:00N 40°40' W 074°09'2 3.0
2017-Dec-08 10:30N 40°39' W 074°07'3 6.5
2017-Dec-08 10:00N 40°38' W 074°03'2 3.6
2017-Dec-08 09:30N 40°36' W 074°03'4 7.6
2017-Dec-08 08:59N 40°39' W 074°07'1 2.0
2017-Dec-08 08:29N 40°38' W 074°08'0 0.0
2017-Dec-08 07:59N 40°38' W 074°08'0 0.0
2017-Dec-08 07:30N 40°38' W 074°08'0 0.0
2017-Dec-08 06:59N 40°38' W 074°08'0 0.0
2017-Dec-08 06:30N 40°38' W 074°08'0 0.0
2017-Dec-08 05:59N 40°38' W 074°08'0 0.0
2017-Dec-08 05:29N 40°38' W 074°08'0 0.4
2017-Dec-08 05:00N 40°39' W 074°08'2 3.1
2017-Dec-08 04:30N 40°40' W 074°08'1 2.1
2017-Dec-08 04:00N 40°41' W 074°09'1 1.3
2017-Dec-08 03:30N 40°41' W 074°08'2 4.2
2017-Dec-08 03:00N 40°38' W 074°08'0 0.0
2017-Dec-08 02:29N 40°38' W 074°08'0 0.0
2017-Dec-08 02:00N 40°38' W 074°08'0 0.0
2017-Dec-08 01:30N 40°38' W 074°08'0 0.0
2017-Dec-08 01:00N 40°38' W 074°08'0 0.0
2017-Dec-08 00:30N 40°38' W 074°08'0 0.9
2017-Dec-08 00:00N 40°39' W 074°07'3 5.5
2017-Dec-07 23:30N 40°40' W 074°04'3 2.3
2017-Dec-07 22:00N 40°40' W 074°09'2 3.7
2017-Dec-07 21:30N 40°41' W 074°08'0 0.9
2017-Dec-07 21:00N 40°42' W 074°09'2 3.9
2017-Dec-07 20:30N 40°40' W 074°09'1 2.8
2017-Dec-07 20:00N 40°38' W 074°08'0 0.0
2017-Dec-07 19:29N 40°38' W 074°08'0 0.0
2017-Dec-07 18:58N 40°38' W 074°08'0 0.0
2017-Dec-07 18:29N 40°38' W 074°08'0 0.0
2017-Dec-07 18:00N 40°38' W 074°08'0 0.0
2017-Dec-07 17:27N 40°38' W 074°08'0 0.0
2017-Dec-07 17:00N 40°38' W 074°08'0 0.9
2017-Dec-07 16:30N 40°39' W 074°07'1 1.2
2017-Dec-07 15:58N 40°39' W 074°08'1 2.3
2017-Dec-07 15:30N 40°40' W 074°09'1 2.0
2017-Dec-07 15:00N 40°41' W 074°08'0 0.7
2017-Dec-07 14:30N 40°41' W 074°09'0 0.8
2017-Dec-07 14:00N 40°40' W 074°08'0 0.0
2017-Dec-07 13:30N 40°40' W 074°08'2 4.1
2017-Dec-07 13:00N 40°38' W 074°08'0 0.0
2017-Dec-07 12:30N 40°38' W 074°08'1 1.6
2017-Dec-07 12:00N 40°39' W 074°09'2 4.0
2017-Dec-07 11:30N 40°40' W 074°08'1 1.8
2017-Dec-07 11:00N 40°41' W 074°09'0 0.0
2017-Dec-07 10:30N 40°41' W 074°09'2 4.9
2017-Dec-07 09:59N 40°39' W 074°08'0 0.5
2017-Dec-07 09:30N 40°38' W 074°08'0 0.0
2017-Dec-07 09:00N 40°38' W 074°08'0 0.0
2017-Dec-07 08:30N 40°38' W 074°08'0 0.0
2017-Dec-07 08:00N 40°38' W 074°08'0 0.0
2017-Dec-07 07:30N 40°38' W 074°08'0 0.0
2017-Dec-07 07:00N 40°38' W 074°08'0 0.0
2017-Dec-07 06:30N 40°38' W 074°08'0 0.0
2017-Dec-07 06:00N 40°38' W 074°08'0 0.0
2017-Dec-07 05:30N 40°38' W 074°08'0 0.0
2017-Dec-07 05:00N 40°38' W 074°08'0 0.0
2017-Dec-07 04:30N 40°38' W 074°08'0 0.0
2017-Dec-07 04:00N 40°38' W 074°08'0 0.0
2017-Dec-07 03:30N 40°38' W 074°08'1 2.4
2017-Dec-07 03:00N 40°39' W 074°09'0 0.6
2017-Dec-07 02:30N 40°40' W 074°09'1 2.8
2017-Dec-07 01:59N 40°38' W 074°08'0 0.0
2017-Dec-07 01:29N 40°38' W 074°08'0 0.0
2017-Dec-07 01:00N 40°38' W 074°08'0 0.0
2017-Dec-07 00:27N 40°38' W 074°08'1 3.2
2017-Dec-07 00:00N 40°40' W 074°08'2 3.7
2017-Dec-06 23:29N 40°42' W 074°09'0 0.1
2017-Dec-06 23:00N 40°42' W 074°09'3 5.6
2017-Dec-06 22:30N 40°39' W 074°09'1 1.4
2017-Dec-06 21:47N 40°38' W 074°08'0 0.0
2017-Dec-06 21:26N 40°38' W 074°08'0 0.0
2017-Dec-06 21:00N 40°38' W 074°08'  
Track history (hours):
 
Tides and Currents Weather Stations Pressure Air Temp Water Temp Dewpoint Dewpoint Depression Visibility Wind Speed Wind Dir Waves Ship Positions

Jonathan C Moran

Owner: Moran Towing Corporation, New Canaan, CT. More information available from US FCC via Universal Licensing System and Coast Guard Vessel Documentation Center.

Last reported at 2017-Dec-15 12:00 UTC. Time now 2017-Dec-15 12:08 UTC.
Position N 40°38' W 074°08'.

Length 28 m; draft 5.5 m.

Type: Tug. MMSI: 367707930.

Date/timePositionNaut miles runAvg speedWind from/ knotsBaromVisibWave heightAir tempDewpointWater temp
2017-Dec-15 12:00N 40°38' W 074°08'0 0.0
2017-Dec-15 11:30N 40°38' W 074°08'2 4.6
2017-Dec-15 11:00N 40°39' W 074°05'0 0.5
2017-Dec-15 10:30N 40°39' W 074°05'0 0.1
2017-Dec-15 10:00N 40°39' W 074°05'0 0.1
2017-Dec-15 09:30N 40°39' W 074°05'2 3.9
2017-Dec-15 09:00N 40°38' W 074°08'0 0.0
2017-Dec-15 08:29N 40°38' W 074°08'0 0.0
2017-Dec-15 07:52N 40°38' W 074°08'0 0.0
2017-Dec-15 07:28N 40°38' W 074°08'0 0.0
2017-Dec-15 06:59N 40°38' W 074°08'0 0.0
2017-Dec-15 06:30N 40°38' W 074°08'0 0.0
2017-Dec-15 05:59N 40°38' W 074°08'0 0.0
2017-Dec-15 05:19N 40°38' W 074°08'2 7.2
2017-Dec-15 05:00N 40°41' W 074°09'0 0.4
2017-Dec-15 04:30N 40°41' W 074°09'0 0.8
2017-Dec-15 04:00N 40°41' W 074°09'3 1.9
2017-Dec-15 02:30N 40°38' W 074°08'0 0.0
2017-Dec-15 01:00N 40°38' W 074°08'0 0.0
2017-Dec-15 00:30N 40°38' W 074°08'0 0.0
2017-Dec-14 17:47N 40°38' W 074°08'0 0.0
2017-Dec-14 17:26N 40°38' W 074°08'0 0.0
2017-Dec-14 16:47N 40°38' W 074°08'0 0.0
2017-Dec-14 16:26N 40°38' W 074°08'0 0.0
2017-Dec-14 15:59N 40°38' W 074°08'0 0.0
2017-Dec-14 14:47N 40°38' W 074°08'0 0.0
2017-Dec-14 14:29N 40°38' W 074°08'0 0.0
2017-Dec-14 14:00N 40°38' W 074°08'0 0.0
2017-Dec-14 13:30N 40°38' W 074°08'0 0.0
2017-Dec-14 12:59N 40°38' W 074°08'0 0.0
2017-Dec-14 12:29N 40°38' W 074°08'3 5.4
2017-Dec-14 12:00N 40°39' W 074°11'1 1.6
2017-Dec-14 11:30N 40°39' W 074°10'3 6.7
2017-Dec-14 11:00N 40°39' W 074°06'2 4.3
2017-Dec-14 10:31N 40°38' W 074°03'4 7.0
2017-Dec-14 10:00N 40°39' W 074°08'0 0.1
2017-Dec-14 09:30N 40°38' W 074°08'0 0.0
2017-Dec-14 08:59N 40°38' W 074°08'0 0.0
2017-Dec-14 08:30N 40°38' W 074°08'0 0.0
2017-Dec-14 07:59N 40°38' W 074°08'0 0.0
2017-Dec-14 07:30N 40°38' W 074°08'0 0.0
2017-Dec-14 07:00N 40°38' W 074°08'0 0.0
2017-Dec-14 06:30N 40°38' W 074°08'0 0.0
2017-Dec-14 06:00N 40°38' W 074°08'0 0.0
2017-Dec-14 05:29N 40°38' W 074°08'0 0.0
2017-Dec-14 05:00N 40°38' W 074°08'0 0.0
2017-Dec-14 04:30N 40°38' W 074°08'0 0.0
2017-Dec-14 04:00N 40°38' W 074°08'0 0.0
2017-Dec-14 03:30N 40°38' W 074°08'0 0.0
2017-Dec-14 03:00N 40°38' W 074°08'0 0.0
2017-Dec-14 02:30N 40°38' W 074°08'0 0.0
2017-Dec-14 02:00N 40°38' W 074°08'0 0.0
2017-Dec-14 01:29N 40°38' W 074°08'0 0.0
2017-Dec-14 00:58N 40°38' W 074°08'0 0.0
2017-Dec-14 00:30N 40°38' W 074°08'0 0.0
2017-Dec-13 23:59N 40°38' W 074°08'0 0.0
2017-Dec-13 23:30N 40°38' W 074°08'0 0.0
2017-Dec-13 23:00N 40°38' W 074°08'0 0.0
2017-Dec-13 22:24N 40°38' W 074°08'0 0.0
2017-Dec-13 21:59N 40°38' W 074°08'0 0.0
2017-Dec-13 21:30N 40°38' W 074°08'0 0.0
2017-Dec-13 20:59N 40°38' W 074°08'0 0.0
2017-Dec-13 20:29N 40°38' W 074°08'0 0.0
2017-Dec-13 19:59N 40°38' W 074°08'0 0.0
2017-Dec-13 19:30N 40°38' W 074°08'0 0.0
2017-Dec-13 19:00N 40°38' W 074°08'0 0.0
2017-Dec-13 18:30N 40°38' W 074°08'0 0.0
2017-Dec-13 18:00N 40°38' W 074°08'0 0.0
2017-Dec-13 17:29N 40°38' W 074°08'2 5.2
2017-Dec-13 17:00N 40°41' W 074°09'0 0.1
2017-Dec-13 16:30N 40°41' W 074°09'1 2.8
2017-Dec-13 15:59N 40°39' W 074°09'2 3.2
2017-Dec-13 15:30N 40°39' W 074°07'2 5.0
2017-Dec-13 15:00N 40°39' W 074°04'3 5.1
2017-Dec-13 14:30N 40°36' W 074°03'4 4.5
2017-Dec-13 13:31N 40°38' W 074°08'0 0.0
2017-Dec-13 13:30N 40°38' W 074°08'1 2.9
2017-Dec-13 13:01N 40°40' W 074°08'1 1.6
2017-Dec-13 12:30N 40°41' W 074°09'0 0.4
2017-Dec-13 11:59N 40°41' W 074°09'2 3.7
2017-Dec-13 11:30N 40°39' W 074°09'1 1.9
2017-Dec-13 11:00N 40°40' W 074°09'0 0.2
2017-Dec-13 10:30N 40°40' W 074°09'0 0.2
2017-Dec-13 10:00N 40°40' W 074°09'1 2.9
2017-Dec-13 09:30N 40°38' W 074°08'0 0.0
2017-Dec-13 08:57N 40°38' W 074°08'0 0.0
2017-Dec-13 08:30N 40°38' W 074°08'0 0.0
2017-Dec-13 08:00N 40°38' W 074°08'0 0.0
2017-Dec-13 07:30N 40°38' W 074°08'0 0.0
2017-Dec-13 07:00N 40°38' W 074°08'0 0.0
2017-Dec-13 06:30N 40°38' W 074°08'0 0.0
2017-Dec-13 05:57N 40°38' W 074°08'0 0.0
2017-Dec-13 05:30N 40°38' W 074°08'0 0.0
2017-Dec-13 05:00N 40°38' W 074°08'0 0.0
2017-Dec-13 04:30N 40°38' W 074°08'3 5.0
2017-Dec-13 04:00N 40°41' W 074°09'0 0.5
2017-Dec-13 03:30N 40°41' W 074°09'0 0.3
2017-Dec-13 03:00N 40°41' W 074°09'2 3.4
2017-Dec-13 02:30N 40°39' W 074°09'2 4.0
2017-Dec-13 01:58N 40°39' W 074°06'3 6.3
2017-Dec-13 01:29N 40°37' W 074°03'2 3.8
2017-Dec-13 01:00N 40°35' W 074°02'3 5.8
2017-Dec-13 00:30N 40°38' W 074°04'3 1.3
2017-Dec-12 21:59N 40°38' W 074°08'0 0.0
2017-Dec-12 21:18N 40°38' W 074°08'0 0.0
2017-Dec-12 20:58N 40°38' W 074°08'1 3.0
2017-Dec-12 20:30N 40°40' W 074°09'0 0.3
2017-Dec-12 20:00N 40°40' W 074°09'1 2.9
2017-Dec-12 19:30N 40°39' W 074°07'3 6.2
2017-Dec-12 19:00N 40°38' W 074°03'3 5.2
2017-Dec-12 18:30N 40°39' W 074°07'1 1.8
2017-Dec-12 17:57N 40°38' W 074°08'0 0.0
2017-Dec-12 17:21N 40°38' W 074°08'0 0.0
2017-Dec-12 16:51N 40°38' W 074°08'0 0.0
2017-Dec-12 16:29N 40°38' W 074°08'0 0.0
2017-Dec-12 15:54N 40°38' W 074°08'0 0.0
2017-Dec-12 15:28N 40°38' W 074°08'0 0.0
2017-Dec-12 14:55N 40°38' W 074°08'0 0.0
2017-Dec-12 14:01N 40°38' W 074°08'0 0.0
2017-Dec-12 13:45N 40°38' W 074°08'0 0.0
2017-Dec-12 13:27N 40°38' W 074°08'2 4.6
2017-Dec-12 13:00N 40°39' W 074°05'1 2.3
2017-Dec-12 12:30N 40°40' W 074°04'1 1.2
2017-Dec-12 11:59N 40°40' W 074°05'3 6.6
2017-Dec-12 11:31N 40°41' W 074°01'0 0.6
2017-Dec-12 11:00N 40°41' W 074°01'2 4.6
2017-Dec-12 10:30N 40°39' W 074°03'2 5.0
2017-Dec-12 10:00N 40°39' W 074°06'2 3.9
2017-Dec-12 09:29N 40°39' W 074°09'1 1.2
2017-Dec-12 09:00N 40°40' W 074°09'0 0.4
2017-Dec-12 08:30N 40°40' W 074°09'0 0.0
2017-Dec-12 08:00N 40°40' W 074°09'1 1.4
2017-Dec-12 07:30N 40°39' W 074°09'1 1.9
2017-Dec-12 06:59N 40°38' W 074°08'0 0.0
2017-Dec-12 06:25N 40°38' W 074°08'0 0.0
2017-Dec-12 06:00N 40°38' W 074°08'0 0.0
2017-Dec-12 05:30N 40°38' W 074°08'0 0.0
2017-Dec-12 04:59N 40°38' W 074°08'0 0.0
2017-Dec-12 04:30N 40°38' W 074°08'0 0.0
2017-Dec-12 04:00N 40°38' W 074°08'0 0.0
2017-Dec-12 03:29N 40°38' W 074°08'0 0.0
2017-Dec-12 03:00N 40°38' W 074°08'0 0.0
2017-Dec-12 02:30N 40°38' W 074°08'0 0.0
2017-Dec-12 01:59N 40°38' W 074°08'0 0.0
2017-Dec-12 01:30N 40°38' W 074°08'0 0.0
2017-Dec-12 01:00N 40°38' W 074°08'0 0.0
2017-Dec-12 00:30N 40°38' W 074°08'0 0.0
2017-Dec-12 00:00N 40°38' W 074°08'0 0.0
2017-Dec-11 23:21N 40°38' W 074°08'1 1.9
2017-Dec-11 23:00N 40°39' W 074°09'3 5.0
2017-Dec-11 22:30N 40°41' W 074°09'0 0.5
2017-Dec-11 22:00N 40°41' W 074°09'2 3.7
2017-Dec-11 21:28N 40°39' W 074°09'3 4.5
2017-Dec-11 20:54N 40°39' W 074°06'2 5.1
2017-Dec-11 20:29N 40°38' W 074°03'2 3.4
2017-Dec-11 20:00N 40°39' W 074°05'2 4.7
2017-Dec-11 19:30N 40°38' W 074°08'0 0.0
2017-Dec-11 19:00N 40°38' W 074°08'0 0.0
2017-Dec-11 18:30N 40°38' W 074°08'0 0.0
2017-Dec-11 17:59N 40°38' W 074°08'0 0.0
2017-Dec-11 17:30N 40°38' W 074°08'0 0.0
2017-Dec-11 17:00N 40°38' W 074°08'0 0.0
2017-Dec-11 16:30N 40°38' W 074°08'1 2.9
2017-Dec-11 16:00N 40°40' W 074°09'0 0.3
2017-Dec-11 15:30N 40°40' W 074°09'1 2.6
2017-Dec-11 14:59N 40°39' W 074°08'3 6.9
2017-Dec-11 14:30N 40°39' W 074°04'0 0.9
2017-Dec-11 14:00N 40°39' W 074°04'3 5.4
2017-Dec-11 13:30N 40°38' W 074°08'0 0.0
2017-Dec-11 12:59N 40°38' W 074°08'0 0.0
2017-Dec-11 12:30N 40°38' W 074°08'0 0.0
2017-Dec-11 12:00N 40°38' W 074°08'0 0.0
2017-Dec-11 11:29N 40°38' W 074°08'0 0.2
2017-Dec-11 11:00N 40°39' W 074°08'2 3.6
2017-Dec-11 10:30N 40°40' W 074°08'1 1.7
2017-Dec-11 09:59N 40°41' W 074°09'0 0.1
2017-Dec-11 09:30N 40°41' W 074°09'0 0.0
2017-Dec-11 09:00N 40°41' W 074°09'0 0.0
2017-Dec-11 08:30N 40°41' W 074°09'0 0.0
2017-Dec-11 08:00N 40°41' W 074°09'2 4.9
2017-Dec-11 07:30N 40°39' W 074°08'0 0.2
2017-Dec-11 05:11N 40°38' W 074°08'0 0.0
2017-Dec-11 05:00N 40°38' W 074°08'0 0.0
2017-Dec-11 04:27N 40°38' W 074°08'0 0.0
2017-Dec-11 03:51N 40°38' W 074°08'0 0.0
2017-Dec-11 03:23N 40°38' W 074°08'0 0.0
2017-Dec-11 02:59N 40°38' W 074°08'0 0.0
2017-Dec-11 02:28N 40°38' W 074°08'0 0.0
2017-Dec-11 01:12N 40°38' W 074°08'0 0.0
2017-Dec-11 00:59N 40°38' W 074°08'0 0.0
2017-Dec-11 00:29N 40°38' W 074°08'0 0.0
2017-Dec-11 00:00N 40°38' W 074°08'0 0.0
2017-Dec-10 23:25N 40°38' W 074°08'1 3.0
2017-Dec-10 23:00N 40°40' W 074°09'1 2.6
2017-Dec-10 22:30N 40°41' W 074°09'1 2.8
2017-Dec-10 22:00N 40°40' W 074°09'1 2.5
2017-Dec-10 21:30N 40°38' W 074°08'0 0.0
2017-Dec-10 21:00N 40°38' W 074°08'0 0.0
2017-Dec-10 20:30N 40°38' W 074°08'0 0.0
2017-Dec-10 20:00N 40°38' W 074°08'0 0.9
2017-Dec-10 19:30N 40°39' W 074°07'1 2.6
2017-Dec-10 19:00N 40°39' W 074°09'1 2.8
2017-Dec-10 18:30N 40°41' W 074°08'0 0.5
2017-Dec-10 18:00N 40°41' W 074°09'2 3.1
2017-Dec-10 17:30N 40°39' W 074°09'1 1.8
2017-Dec-10 16:55N 40°38' W 074°08'0 0.0
2017-Dec-10 16:29N 40°38' W 074°08'0 0.0
2017-Dec-10 15:57N 40°38' W 074°08'0 0.0
2017-Dec-10 15:28N 40°38' W 074°08'0 0.0
2017-Dec-10 14:55N 40°38' W 074°08'0 0.0
2017-Dec-10 14:30N 40°38' W 074°08'0 0.0
2017-Dec-10 13:54N 40°38' W 074°08'0 0.0
2017-Dec-10 13:29N 40°38' W 074°08'0 0.0
2017-Dec-10 11:46N 40°38' W 074°08'0 0.0
2017-Dec-10 11:29N 40°38' W 074°08'0 0.0
2017-Dec-10 11:00N 40°38' W 074°08'0 0.0
2017-Dec-10 10:30N 40°38' W 074°08'0 0.0
2017-Dec-10 09:59N 40°38' W 074°08'0 0.0
2017-Dec-10 09:30N 40°38' W 074°08'1 1.5
2017-Dec-10 09:00N 40°38' W 074°09'2 4.6
2017-Dec-10 08:30N 40°41' W 074°09'0 0.5
2017-Dec-10 07:59N 40°41' W 074°09'3 5.2
2017-Dec-10 07:30N 40°39' W 074°08'2 3.5
2017-Dec-10 06:59N 40°40' W 074°08'1 2.2
2017-Dec-10 06:30N 40°41' W 074°09'0 0.1
2017-Dec-10 06:00N 40°41' W 074°09'0 0.0
2017-Dec-10 05:30N 40°41' W 074°09'0 0.0
2017-Dec-10 05:00N 40°41' W 074°09'0 0.0
2017-Dec-10 04:30N 40°41' W 074°09'0 0.5
2017-Dec-10 04:00N 40°41' W 074°09'1 1.8
2017-Dec-10 03:30N 40°40' W 074°08'2 3.6
2017-Dec-10 03:00N 40°39' W 074°07'3 6.1
2017-Dec-10 02:30N 40°38' W 074°04'0 0.3
2017-Dec-10 02:00N 40°38' W 074°04'3 2.3
2017-Dec-10 00:39N 40°38' W 074°08'0 0.0
2017-Dec-10 00:09N 40°38' W 074°08'0 0.0
2017-Dec-09 18:30N 40°38' W 074°08'0 0.0
2017-Dec-09 17:04N 40°38' W 074°08'0 0.0
2017-Dec-09 16:53N 40°38' W 074°08'0 0.0
2017-Dec-09 16:20N 40°38' W 074°08'0 0.0
2017-Dec-09 15:58N 40°38' W 074°08'0 0.0
2017-Dec-09 15:30N 40°38' W 074°08'0 0.0
2017-Dec-09 15:00N 40°38' W 074°08'0 0.0
2017-Dec-09 14:28N 40°38' W 074°08'0 0.0
2017-Dec-09 13:59N 40°38' W 074°08'0 0.0
2017-Dec-09 13:22N 40°38' W 074°08'0 0.0
2017-Dec-09 12:28N 40°38' W 074°08'0 0.0
2017-Dec-09 12:00N 40°38' W 074°08'0 0.0
2017-Dec-09 11:30N 40°38' W 074°08'0 0.0
2017-Dec-09 11:00N 40°38' W 074°08'0 0.0
2017-Dec-09 10:30N 40°38' W 074°08'0 0.0
2017-Dec-09 09:59N 40°38' W 074°08'0 0.0
2017-Dec-09 09:30N 40°38' W 074°08'0 0.0
2017-Dec-09 08:59N 40°38' W 074°08'0 0.0
2017-Dec-09 08:24N 40°38' W 074°08'0 0.0
2017-Dec-09 07:59N 40°38' W 074°08'0 0.0
2017-Dec-09 07:29N 40°38' W 074°08'0 0.4
2017-Dec-09 07:00N 40°39' W 074°08'1 2.4
2017-Dec-09 06:30N 40°40' W 074°09'0 0.4
2017-Dec-09 06:00N 40°40' W 074°09'0 0.1
2017-Dec-09 05:30N 40°40' W 074°09'1 2.9
2017-Dec-09 05:00N 40°38' W 074°08'0 0.0
2017-Dec-09 04:30N 40°38' W 074°08'0 0.0
2017-Dec-09 04:00N 40°39' W 074°08'0 0.0
2017-Dec-09 03:30N 40°39' W 074°08'0 0.0
2017-Dec-09 03:00N 40°39' W 074°08'0 0.0
2017-Dec-09 02:30N 40°39' W 074°08'0 0.0
2017-Dec-09 02:00N 40°39' W 074°08'3 6.1
2017-Dec-09 01:30N 40°39' W 074°04'2 3.3
2017-Dec-09 01:00N 40°40' W 074°05'1 1.4
2017-Dec-09 00:30N 40°40' W 074°04'4 7.2
2017-Dec-08 23:59N 40°38' W 074°09'3 5.6
2017-Dec-08 23:30N 40°41' W 074°08'1 1.7
2017-Dec-08 23:00N 40°42' W 074°09'3 6.3
2017-Dec-08 22:29N 40°39' W 074°09'1 1.6
2017-Dec-08 22:00N 40°38' W 074°08'0 0.0
2017-Dec-08 21:30N 40°38' W 074°08'0 0.0
2017-Dec-08 21:00N 40°38' W 074°08'0 0.0
2017-Dec-08 20:30N 40°38' W 074°08'0 0.0
2017-Dec-08 20:00N 40°38' W 074°08'0 0.0
2017-Dec-08 19:30N 40°38' W 074°08'0 0.0
2017-Dec-08 19:00N 40°38' W 074°08'0 0.0
2017-Dec-08 18:30N 40°38' W 074°08'0 0.0
2017-Dec-08 18:00N 40°38' W 074°08'0 0.0
2017-Dec-08 17:30N 40°38' W 074°08'0 0.0
2017-Dec-08 17:00N 40°38' W 074°08'0 0.0
2017-Dec-08 16:30N 40°38' W 074°08'0 0.0
2017-Dec-08 16:00N 40°38' W 074°08'0 0.0
2017-Dec-08 15:30N 40°38' W 074°08'0 0.0
2017-Dec-08 15:00N 40°38' W 074°08'0 0.0
2017-Dec-08 14:30N 40°38' W 074°08'0 0.0
2017-Dec-08 14:00N 40°38' W 074°08'0 0.0
2017-Dec-08 13:30N 40°38' W 074°08'0 0.0
2017-Dec-08 13:00N 40°38' W 074°08'1 2.2
2017-Dec-08 12:29N 40°39' W 074°09'2 3.1
2017-Dec-08 12:00N 40°41' W 074°09'0 0.7
2017-Dec-08 11:30N 40°41' W 074°09'1 1.6
2017-Dec-08 11:00N 40°40' W 074°09'2 3.0
2017-Dec-08 10:30N 40°39' W 074°07'3 6.5
2017-Dec-08 10:00N 40°38' W 074°03'2 3.6
2017-Dec-08 09:30N 40°36' W 074°03'4 7.6
2017-Dec-08 08:59N 40°39' W 074°07'1 2.0
2017-Dec-08 08:29N 40°38' W 074°08'0 0.0
2017-Dec-08 07:59N 40°38' W 074°08'0 0.0
2017-Dec-08 07:30N 40°38' W 074°08'0 0.0
2017-Dec-08 06:59N 40°38' W 074°08'0 0.0
2017-Dec-08 06:30N 40°38' W 074°08'0 0.0
2017-Dec-08 05:59N 40°38' W 074°08'0 0.0
2017-Dec-08 05:29N 40°38' W 074°08'0 0.4
2017-Dec-08 05:00N 40°39' W 074°08'2 3.1
2017-Dec-08 04:30N 40°40' W 074°08'1 2.1
2017-Dec-08 04:00N 40°41' W 074°09'1 1.3
2017-Dec-08 03:30N 40°41' W 074°08'2 4.2
2017-Dec-08 03:00N 40°38' W 074°08'0 0.0
2017-Dec-08 02:29N 40°38' W 074°08'0 0.0
2017-Dec-08 02:00N 40°38' W 074°08'0 0.0
2017-Dec-08 01:30N 40°38' W 074°08'0 0.0
2017-Dec-08 01:00N 40°38' W 074°08'0 0.0
2017-Dec-08 00:30N 40°38' W 074°08'0 0.9
2017-Dec-08 00:00N 40°39' W 074°07'3 5.5
2017-Dec-07 23:30N 40°40' W 074°04'3 2.3
2017-Dec-07 22:00N 40°40' W 074°09'2 3.7
2017-Dec-07 21:30N 40°41' W 074°08'0 0.9
2017-Dec-07 21:00N 40°42' W 074°09'2 3.9
2017-Dec-07 20:30N 40°40' W 074°09'1 2.8
2017-Dec-07 20:00N 40°38' W 074°08'0 0.0
2017-Dec-07 19:29N 40°38' W 074°08'0 0.0
2017-Dec-07 18:58N 40°38' W 074°08'0 0.0
2017-Dec-07 18:29N 40°38' W 074°08'0 0.0
2017-Dec-07 18:00N 40°38' W 074°08'0 0.0
2017-Dec-07 17:27N 40°38' W 074°08'0 0.0
2017-Dec-07 17:00N 40°38' W 074°08'0 0.9
2017-Dec-07 16:30N 40°39' W 074°07'1 1.2
2017-Dec-07 15:58N 40°39' W 074°08'1 2.3
2017-Dec-07 15:30N 40°40' W 074°09'1 2.0
2017-Dec-07 15:00N 40°41' W 074°08'0 0.7
2017-Dec-07 14:30N 40°41' W 074°09'0 0.8
2017-Dec-07 14:00N 40°40' W 074°08'0 0.0
2017-Dec-07 13:30N 40°40' W 074°08'2 4.1
2017-Dec-07 13:00N 40°38' W 074°08'0 0.0
2017-Dec-07 12:30N 40°38' W 074°08'1 1.6
2017-Dec-07 12:00N 40°39' W 074°09'2 4.0
2017-Dec-07 11:30N 40°40' W 074°08'1 1.8
2017-Dec-07 11:00N 40°41' W 074°09'0 0.0
2017-Dec-07 10:30N 40°41' W 074°09'2 4.9
2017-Dec-07 09:59N 40°39' W 074°08'0 0.5
2017-Dec-07 09:30N 40°38' W 074°08'0 0.0
2017-Dec-07 09:00N 40°38' W 074°08'0 0.0
2017-Dec-07 08:30N 40°38' W 074°08'0 0.0
2017-Dec-07 08:00N 40°38' W 074°08'0 0.0
2017-Dec-07 07:30N 40°38' W 074°08'0 0.0
2017-Dec-07 07:00N 40°38' W 074°08'0 0.0
2017-Dec-07 06:30N 40°38' W 074°08'0 0.0
2017-Dec-07 06:00N 40°38' W 074°08'0 0.0
2017-Dec-07 05:30N 40°38' W 074°08'0 0.0
2017-Dec-07 05:00N 40°38' W 074°08'0 0.0
2017-Dec-07 04:30N 40°38' W 074°08'0 0.0
2017-Dec-07 04:00N 40°38' W 074°08'0 0.0
2017-Dec-07 03:30N 40°38' W 074°08'1 2.4
2017-Dec-07 03:00N 40°39' W 074°09'0 0.6
2017-Dec-07 02:30N 40°40' W 074°09'1 2.8
2017-Dec-07 01:59N 40°38' W 074°08'0 0.0
2017-Dec-07 01:29N 40°38' W 074°08'0 0.0
2017-Dec-07 01:00N 40°38' W 074°08'0 0.0
2017-Dec-07 00:27N 40°38' W 074°08'1 3.2
2017-Dec-07 00:00N 40°40' W 074°08'2 3.7
2017-Dec-06 23:29N 40°42' W 074°09'0 0.1
2017-Dec-06 23:00N 40°42' W 074°09'3 5.6
2017-Dec-06 22:30N 40°39' W 074°09'1 1.4
2017-Dec-06 21:47N 40°38' W 074°08'0 0.0
2017-Dec-06 21:26N 40°38' W 074°08'0 0.0
2017-Dec-06 21:00N 40°38' W 074°08'  

Dump ship's entire track history